createdAt,value
2022-10-18T00:00:01.767Z,70.0
2022-10-18T00:02:42.513Z,70.0
2022-10-18T00:05:13.096Z,70.0
2022-10-18T00:07:44.040Z,70.0
2022-10-18T00:10:14.641Z,70.0
2022-10-18T00:15:25.880Z,70.0
2022-10-18T00:20:26.631Z,70.0
2022-10-18T00:25:27.377Z,70.0
2022-10-18T00:27:57.967Z,70.0
2022-10-18T00:30:38.630Z,70.0
2022-10-18T00:33:09.232Z,70.0
2022-10-18T00:35:39.820Z,70.0
2022-10-18T00:38:10.405Z,70.0
2022-10-18T00:40:41.006Z,70.0
2022-10-18T00:43:11.610Z,71.0
2022-10-18T00:45:52.226Z,70.0
2022-10-18T00:48:22.820Z,70.0
2022-10-18T00:50:53.384Z,70.0
2022-10-18T00:53:23.975Z,70.0
2022-10-18T00:55:54.573Z,70.0
2022-10-18T01:01:05.312Z,70.0
2022-10-18T01:03:35.968Z,71.0
2022-10-18T01:06:16.650Z,71.0
2022-10-18T01:08:47.311Z,71.0
2022-10-18T01:11:17.896Z,71.0
2022-10-18T01:13:58.480Z,71.0
2022-10-18T01:16:29.080Z,71.0
2022-10-18T01:18:59.683Z,71.0
2022-10-18T01:21:30.252Z,71.0
2022-10-18T01:24:00.825Z,71.0
2022-10-18T01:26:31.410Z,71.0
2022-10-18T01:29:12.140Z,71.0
2022-10-18T01:31:42.748Z,71.0
2022-10-18T01:34:06.881Z,71.0
2022-10-18T01:36:37.468Z,71.0
2022-10-18T01:41:48.244Z,71.0
2022-10-18T01:44:18.857Z,71.0
2022-10-18T01:49:19.589Z,71.0
2022-10-18T01:51:50.189Z,71.0
2022-10-18T01:54:20.842Z,71.0
2022-10-18T01:57:01.459Z,71.0
2022-10-18T01:59:42.068Z,71.0
2022-10-18T02:02:12.636Z,71.0
2022-10-18T02:04:43.259Z,71.0
2022-10-18T02:07:13.856Z,71.0
2022-10-18T02:09:44.478Z,71.0
2022-10-18T02:12:25.148Z,71.0
2022-10-18T02:17:25.901Z,71.0
2022-10-18T02:22:26.611Z,71.0
2022-10-18T02:25:07.226Z,71.0
2022-10-18T02:27:37.806Z,71.0
2022-10-18T02:30:08.413Z,71.0
2022-10-18T02:32:39.494Z,71.0
2022-10-18T02:35:10.100Z,71.0
2022-10-18T02:37:40.692Z,71.0
2022-10-18T02:40:21.302Z,71.0
2022-10-18T02:42:51.885Z,71.0
2022-10-18T02:45:22.493Z,71.0
2022-10-18T02:47:53.081Z,71.0
2022-10-18T02:50:23.658Z,71.0
2022-10-18T02:53:04.244Z,71.0
2022-10-18T02:55:35.000Z,71.0
2022-10-18T02:58:05.590Z,71.0
2022-10-18T03:03:06.340Z,71.0
2022-10-18T03:05:36.951Z,71.0
2022-10-18T03:08:17.580Z,71.0
2022-10-18T03:10:48.184Z,71.0
2022-10-18T03:13:18.927Z,71.0
2022-10-18T03:15:50.583Z,71.0
2022-10-18T03:18:21.174Z,71.0
2022-10-18T03:20:51.758Z,71.0
2022-10-18T03:23:32.363Z,71.0
2022-10-18T03:26:02.947Z,71.0
2022-10-18T03:28:33.615Z,71.0
2022-10-18T03:31:04.297Z,71.0
2022-10-18T03:33:34.890Z,71.0
2022-10-18T03:36:15.510Z,71.0
2022-10-18T03:38:46.102Z,71.0
2022-10-18T03:43:46.846Z,71.0
2022-10-18T03:46:17.429Z,71.0
2022-10-18T03:48:48.010Z,71.0
2022-10-18T03:51:28.607Z,71.0
2022-10-18T03:53:59.200Z,71.0
2022-10-18T03:56:29.808Z,71.0
2022-10-18T03:59:00.445Z,71.0
2022-10-18T04:01:31.180Z,71.0
2022-10-18T04:04:11.928Z,71.0
2022-10-18T04:06:42.518Z,71.0
2022-10-18T04:09:16.735Z,71.0
2022-10-18T04:11:47.318Z,71.0
2022-10-18T04:14:17.903Z,71.0
2022-10-18T04:16:48.571Z,71.0
2022-10-18T04:19:29.144Z,71.0
2022-10-18T04:24:29.790Z,71.0
2022-10-18T04:27:00.388Z,71.0
2022-10-18T04:29:30.950Z,71.0
2022-10-18T04:37:12.436Z,71.0
2022-10-18T04:39:43.045Z,71.0
2022-10-18T04:42:14.387Z,71.0
2022-10-18T04:44:44.989Z,71.0
2022-10-18T04:47:25.586Z,71.0
2022-10-18T04:49:56.182Z,71.0
2022-10-18T04:52:26.778Z,71.0
2022-10-18T04:54:57.440Z,71.0
2022-10-18T04:57:28.042Z,71.0
2022-10-18T04:59:58.635Z,71.0
2022-10-18T05:05:10.458Z,71.0
2022-10-18T05:07:40.183Z,71.0
2022-10-18T05:10:10.789Z,71.0
2022-10-18T05:12:41.689Z,71.0
2022-10-18T05:15:12.268Z,71.0
2022-10-18T05:17:52.864Z,71.0
2022-10-18T05:20:24.466Z,71.0
2022-10-18T05:22:55.065Z,71.0
2022-10-18T05:25:25.671Z,71.0
2022-10-18T05:27:56.232Z,71.0
2022-10-18T05:30:31.575Z,71.0
2022-10-18T05:33:12.173Z,71.0
2022-10-18T05:35:42.760Z,71.0
2022-10-18T05:38:13.336Z,71.0
2022-10-18T05:40:44.066Z,71.0
2022-10-18T05:45:44.817Z,71.0
2022-10-18T05:48:25.413Z,71.0
2022-10-18T05:50:56.018Z,71.0
2022-10-18T05:53:45.445Z,71.0
2022-10-18T05:55:56.017Z,72.0
2022-10-18T05:58:26.636Z,71.0
2022-10-18T06:01:07.243Z,71.0
2022-10-18T06:03:37.810Z,71.0
2022-10-18T06:06:08.404Z,71.0
2022-10-18T06:08:39.007Z,71.0
2022-10-18T06:11:09.609Z,71.0
2022-10-18T06:13:42.737Z,71.0
2022-10-18T06:16:24.803Z,71.0
2022-10-18T06:18:57.822Z,71.0
2022-10-18T06:21:28.417Z,71.0
2022-10-18T06:26:29.122Z,71.0
2022-10-18T06:31:39.934Z,71.0
2022-10-18T06:34:10.524Z,71.0
2022-10-18T06:36:41.104Z,71.0
2022-10-18T06:39:06.622Z,71.0
2022-10-18T06:41:37.218Z,71.0
2022-10-18T06:44:07.811Z,71.0
2022-10-18T06:46:48.426Z,71.0
2022-10-18T06:49:19.262Z,71.0
2022-10-18T06:51:50.079Z,71.0
2022-10-18T06:54:28.582Z,71.0
2022-10-18T06:56:59.177Z,71.0
2022-10-18T06:59:31.066Z,71.0
2022-10-18T07:02:02.256Z,71.0
2022-10-18T07:07:03.335Z,71.0
2022-10-18T07:09:33.953Z,71.0
2022-10-18T07:12:04.550Z,71.0
2022-10-18T07:14:45.151Z,71.0
2022-10-18T07:19:55.922Z,71.0
2022-10-18T07:22:30.117Z,71.0
2022-10-18T07:24:50.847Z,71.0
2022-10-18T07:27:21.400Z,71.0
2022-10-18T07:30:02.511Z,71.0
2022-10-18T07:32:33.096Z,71.0
2022-10-18T07:35:03.739Z,71.0
2022-10-18T07:37:38.062Z,71.0
2022-10-18T07:40:08.675Z,71.0
2022-10-18T07:42:39.277Z,71.0
2022-10-18T07:47:50.583Z,71.0
2022-10-18T07:50:21.186Z,71.0
2022-10-18T07:52:51.767Z,71.0
2022-10-18T07:55:22.383Z,71.0
2022-10-18T07:57:52.979Z,71.0
2022-10-18T08:00:33.575Z,71.0
2022-10-18T08:03:04.164Z,71.0
2022-10-18T08:05:34.866Z,71.0
2022-10-18T08:08:07.161Z,71.0
2022-10-18T08:10:38.729Z,71.0
2022-10-18T08:13:19.317Z,71.0
2022-10-18T08:15:49.901Z,71.0
2022-10-18T08:18:20.474Z,71.0
2022-10-18T08:20:51.088Z,71.0
2022-10-18T08:23:21.674Z,71.0
2022-10-18T08:28:32.420Z,71.0
2022-10-18T08:31:04.215Z,71.0
2022-10-18T08:33:34.821Z,71.0
2022-10-18T08:36:05.408Z,71.0
2022-10-18T08:38:36.003Z,71.0
2022-10-18T08:41:06.603Z,71.0
2022-10-18T08:43:47.250Z,71.0
2022-10-18T08:46:17.853Z,71.0
2022-10-18T08:48:48.445Z,71.0
2022-10-18T08:51:19.054Z,71.0
2022-10-18T08:53:50.359Z,71.0
2022-10-18T08:56:20.973Z,71.0
2022-10-18T08:59:01.570Z,71.0
2022-10-18T09:01:32.188Z,70.0
2022-10-18T09:04:03.185Z,70.0
2022-10-18T09:09:03.904Z,70.0
2022-10-18T09:11:34.590Z,70.0
2022-10-18T09:14:15.189Z,70.0
2022-10-18T09:16:45.795Z,70.0
2022-10-18T09:19:16.369Z,70.0
2022-10-18T09:21:47.020Z,70.0
2022-10-18T09:24:17.636Z,70.0
2022-10-18T09:26:58.246Z,70.0
2022-10-18T09:29:29.844Z,70.0
2022-10-18T09:32:00.454Z,70.0
2022-10-18T09:34:31.042Z,70.0
2022-10-18T09:37:01.652Z,70.0
2022-10-18T09:39:32.243Z,70.0
2022-10-18T09:42:12.876Z,70.0
2022-10-18T09:44:43.505Z,69.0
2022-10-18T09:49:44.246Z,69.0
2022-10-18T09:52:14.819Z,69.0
2022-10-18T09:54:45.425Z,69.0
2022-10-18T09:57:26.033Z,69.0
2022-10-18T09:59:56.613Z,69.0
2022-10-18T10:04:57.403Z,68.0
2022-10-18T10:07:28.737Z,68.0
2022-10-18T10:10:02.265Z,68.0
2022-10-18T10:12:42.886Z,68.0
2022-10-18T10:15:13.487Z,68.0
2022-10-18T10:17:44.590Z,68.0
2022-10-18T10:20:15.315Z,67.0
2022-10-18T10:22:45.922Z,67.0
2022-10-18T10:25:16.546Z,67.0
2022-10-18T10:30:27.306Z,67.0
2022-10-18T10:32:57.928Z,66.0
2022-10-18T10:35:53.747Z,66.0
2022-10-18T10:38:04.433Z,66.0
2022-10-18T10:40:45.080Z,66.0
2022-10-18T10:43:39.078Z,65.0
2022-10-18T10:45:40.187Z,65.0
2022-10-18T10:48:10.776Z,65.0
2022-10-18T10:50:41.452Z,65.0
2022-10-18T10:53:15.524Z,64.0
2022-10-18T10:55:56.149Z,64.0
2022-10-18T10:58:26.787Z,64.0
2022-10-18T11:00:57.393Z,63.0
2022-10-18T11:03:39.730Z,63.0
2022-10-18T11:06:00.422Z,63.0
2022-10-18T11:11:11.175Z,62.0
2022-10-18T11:13:43.824Z,61.0
2022-10-18T11:16:14.140Z,61.0
2022-10-18T11:18:44.734Z,61.0
2022-10-18T11:21:15.385Z,61.0
2022-10-18T11:23:45.997Z,61.0
2022-10-18T11:26:26.583Z,61.0
2022-10-18T11:29:02.631Z,60.0
2022-10-18T11:31:23.270Z,60.0
2022-10-18T11:34:19.269Z,60.0
2022-10-18T11:36:30.547Z,60.0
2022-10-18T11:39:06.846Z,60.0
2022-10-18T11:44:13.210Z,59.0
2022-10-18T11:46:43.829Z,59.0
2022-10-18T11:54:24.762Z,59.0
2022-10-18T11:56:55.427Z,59.0
2022-10-18T11:59:26.013Z,59.0
2022-10-18T12:01:56.619Z,59.0
2022-10-18T12:04:27.192Z,59.0
2022-10-18T12:06:58.787Z,59.0
2022-10-18T12:09:39.796Z,59.0
2022-10-18T12:12:10.475Z,59.0
2022-10-18T12:14:41.078Z,59.0
2022-10-18T12:17:43.066Z,59.0
2022-10-18T12:19:46.151Z,59.0
2022-10-18T12:22:16.718Z,59.0
2022-10-18T12:24:57.316Z,59.0
2022-10-18T12:27:27.875Z,59.0
2022-10-18T12:32:28.691Z,59.0
2022-10-18T12:34:59.322Z,59.0
2022-10-18T12:37:40.175Z,59.0
2022-10-18T12:40:24.736Z,59.0
2022-10-18T12:42:35.296Z,59.0
2022-10-18T12:45:05.908Z,59.0
2022-10-18T12:50:16.738Z,59.0
2022-10-18T12:52:57.337Z,59.0
2022-10-18T12:55:28.045Z,59.0
2022-10-18T12:57:58.784Z,58.0
2022-10-18T13:00:29.427Z,58.0
2022-10-18T13:02:59.987Z,58.0
2022-10-18T13:05:59.984Z,58.0
2022-10-18T13:08:02.240Z,58.0
2022-10-18T13:13:38.507Z,58.0
2022-10-18T13:15:44.351Z,58.0
2022-10-18T13:18:14.930Z,57.0
2022-10-18T13:20:45.516Z,58.0
2022-10-18T13:23:26.125Z,58.0
2022-10-18T13:25:48.758Z,58.0
2022-10-18T13:28:19.337Z,58.0
2022-10-18T13:30:49.982Z,58.0
2022-10-18T13:33:20.650Z,58.0
2022-10-18T13:36:01.252Z,58.0
2022-10-18T13:38:31.860Z,58.0
2022-10-18T13:41:02.439Z,58.0
2022-10-18T13:43:33.249Z,58.0
2022-10-18T13:46:03.850Z,58.0
2022-10-18T13:48:44.443Z,58.0
2022-10-18T13:53:55.204Z,58.0
2022-10-18T13:56:25.801Z,58.0
2022-10-18T14:01:24.691Z,58.0
2022-10-18T14:04:07.140Z,59.0
2022-10-18T14:06:37.735Z,58.0
2022-10-18T14:09:13.722Z,58.0
2022-10-18T14:11:35.485Z,58.0
2022-10-18T14:14:06.766Z,58.0
2022-10-18T14:16:37.357Z,58.0
2022-10-18T14:19:07.950Z,58.0
2022-10-18T14:21:48.577Z,58.0
2022-10-18T14:24:19.169Z,58.0
2022-10-18T14:26:49.741Z,58.0
2022-10-18T14:29:20.448Z,58.0
2022-10-18T14:34:21.344Z,59.0
2022-10-18T14:37:01.959Z,59.0
2022-10-18T14:39:32.558Z,59.0
2022-10-18T14:42:03.198Z,59.0
2022-10-18T14:44:33.772Z,59.0
2022-10-18T14:47:04.382Z,59.0
2022-10-18T14:49:44.983Z,59.0
2022-10-18T14:52:15.571Z,59.0
2022-10-18T14:54:46.895Z,59.0
2022-10-18T14:57:17.515Z,59.0
2022-10-18T14:59:48.137Z,59.0
2022-10-18T15:02:18.760Z,59.0
2022-10-18T15:04:59.346Z,59.0
2022-10-18T15:07:30.104Z,59.0
2022-10-18T15:10:00.781Z,60.0
2022-10-18T15:15:01.541Z,60.0
2022-10-18T15:17:32.108Z,60.0
2022-10-18T15:20:16.254Z,60.0
2022-10-18T15:22:47.071Z,60.0
2022-10-18T15:25:17.872Z,60.0
2022-10-18T15:27:52.378Z,60.0
2022-10-18T15:30:23.026Z,60.0
2022-10-18T15:35:36.274Z,60.0
2022-10-18T15:38:06.872Z,60.0
2022-10-18T15:40:37.476Z,60.0
2022-10-18T15:43:08.057Z,60.0
2022-10-18T15:45:38.783Z,60.0
2022-10-18T15:48:09.469Z,60.0
2022-10-18T15:50:50.071Z,60.0
2022-10-18T15:55:50.830Z,60.0
2022-10-18T15:58:21.426Z,60.0
2022-10-18T16:00:52.019Z,60.0
2022-10-18T16:03:32.796Z,60.0
2022-10-18T16:06:03.431Z,60.0
2022-10-18T16:08:27.874Z,60.0
2022-10-18T16:13:28.632Z,61.0
2022-10-18T16:18:49.369Z,61.0
2022-10-18T16:21:19.972Z,61.0
2022-10-18T16:23:50.591Z,61.0
2022-10-18T16:26:21.191Z,61.0
2022-10-18T16:28:51.958Z,61.0
2022-10-18T16:31:22.763Z,61.0
2022-10-18T16:36:33.473Z,61.0
2022-10-18T16:39:04.050Z,62.0
2022-10-18T16:41:34.638Z,62.0
2022-10-18T16:44:05.227Z,62.0
2022-10-18T16:46:46.279Z,62.0
2022-10-18T16:49:17.244Z,62.0
2022-10-18T16:51:47.882Z,62.0
2022-10-18T16:54:18.460Z,62.0
2022-10-18T16:56:49.045Z,62.0
2022-10-18T16:59:19.655Z,62.0
2022-10-18T17:02:00.446Z,62.0
2022-10-18T17:04:31.045Z,63.0
2022-10-18T17:07:01.625Z,62.0
2022-10-18T17:09:32.269Z,62.0
2022-10-18T17:12:02.878Z,63.0
2022-10-18T17:17:13.607Z,63.0
2022-10-18T17:19:44.166Z,63.0
2022-10-18T17:22:14.768Z,63.0
2022-10-18T17:24:45.367Z,63.0
2022-10-18T17:27:15.964Z,63.0
2022-10-18T17:29:46.561Z,63.0
2022-10-18T17:32:27.164Z,63.0
2022-10-18T17:34:57.799Z,63.0
2022-10-18T17:37:28.464Z,63.0
2022-10-18T17:40:04.422Z,63.0
2022-10-18T17:42:34.983Z,63.0
2022-10-18T17:45:15.589Z,63.0
2022-10-18T17:47:46.282Z,63.0
2022-10-18T17:50:16.887Z,63.0
2022-10-18T17:52:47.507Z,63.0
2022-10-18T17:57:48.250Z,63.0
2022-10-18T18:00:28.873Z,63.0
2022-10-18T18:02:59.725Z,63.0
2022-10-18T18:05:30.418Z,63.0
2022-10-18T18:08:02.822Z,63.0
2022-10-18T18:10:24.950Z,63.0
2022-10-18T18:12:55.551Z,63.0
2022-10-18T18:15:36.171Z,63.0
2022-10-18T18:20:46.939Z,63.0
2022-10-18T18:23:17.544Z,64.0
2022-10-18T18:25:48.162Z,64.0
2022-10-18T18:28:18.741Z,64.0
2022-10-18T18:30:59.403Z,64.0
2022-10-18T18:33:29.996Z,64.0
2022-10-18T18:38:30.777Z,64.0
2022-10-18T18:41:01.398Z,64.0
2022-10-18T18:43:33.762Z,64.0
2022-10-18T18:46:14.356Z,64.0
2022-10-18T18:48:44.930Z,64.0
2022-10-18T18:51:15.528Z,64.0
2022-10-18T18:53:46.110Z,64.0
2022-10-18T18:56:16.738Z,64.0
2022-10-18T18:58:47.349Z,64.0
2022-10-18T19:01:28.100Z,64.0
2022-10-18T19:03:58.832Z,64.0
2022-10-18T19:06:29.438Z,64.0
2022-10-18T19:09:00.041Z,64.0
2022-10-18T19:11:30.656Z,64.0
2022-10-18T19:14:11.281Z,64.0
2022-10-18T19:19:13.048Z,64.0
2022-10-18T19:21:43.647Z,64.0
2022-10-18T19:24:14.241Z,64.0
2022-10-18T19:26:44.826Z,65.0
2022-10-18T19:29:25.431Z,65.0
2022-10-18T19:31:56.026Z,65.0
2022-10-18T19:34:26.612Z,65.0
2022-10-18T19:36:57.210Z,65.0
2022-10-18T19:39:27.799Z,65.0
2022-10-18T19:41:58.379Z,65.0
2022-10-18T19:44:38.975Z,65.0
2022-10-18T19:47:09.600Z,65.0
2022-10-18T19:49:40.202Z,65.0
2022-10-18T19:52:10.805Z,65.0
2022-10-18T19:54:41.397Z,65.0
2022-10-18T19:59:52.175Z,65.0
2022-10-18T20:02:25.740Z,65.0
2022-10-18T20:04:56.471Z,65.0
2022-10-18T20:07:27.014Z,65.0
2022-10-18T20:09:57.612Z,65.0
2022-10-18T20:12:38.230Z,65.0
2022-10-18T20:15:08.818Z,65.0
2022-10-18T20:17:39.523Z,65.0
2022-10-18T20:20:10.161Z,65.0
2022-10-18T20:22:41.223Z,65.0
2022-10-18T20:25:11.854Z,66.0
2022-10-18T20:27:52.446Z,66.0
2022-10-18T20:30:23.023Z,66.0
2022-10-18T20:32:53.614Z,66.0
2022-10-18T20:35:24.229Z,66.0
2022-10-18T20:40:24.958Z,66.0
2022-10-18T20:43:06.894Z,66.0
2022-10-18T20:45:37.481Z,66.0
2022-10-18T20:48:08.078Z,66.0
2022-10-18T20:50:38.683Z,66.0
2022-10-18T20:53:09.244Z,66.0
2022-10-18T20:55:39.842Z,66.0
2022-10-18T20:58:20.437Z,66.0
2022-10-18T21:00:51.039Z,66.0
2022-10-18T21:05:51.797Z,66.0
2022-10-18T21:08:22.373Z,66.0
2022-10-18T21:11:02.993Z,66.0
2022-10-18T21:13:33.588Z,66.0
2022-10-18T21:16:04.181Z,66.0
2022-10-18T21:21:04.944Z,67.0
2022-10-18T21:23:35.561Z,67.0
2022-10-18T21:26:16.167Z,67.0
2022-10-18T21:28:46.928Z,67.0
2022-10-18T21:31:17.648Z,67.0
2022-10-18T21:33:48.268Z,67.0
2022-10-18T21:36:18.884Z,67.0
2022-10-18T21:38:49.488Z,67.0
2022-10-18T21:41:30.106Z,67.0
2022-10-18T21:44:00.688Z,67.0
2022-10-18T21:46:31.487Z,67.0
2022-10-18T21:49:02.094Z,67.0
2022-10-18T21:51:32.709Z,67.0
2022-10-18T21:54:03.300Z,67.0
2022-10-18T21:56:43.914Z,67.0
2022-10-18T22:01:44.652Z,67.0
2022-10-18T22:04:15.249Z,67.0
2022-10-18T22:06:45.840Z,67.0
2022-10-18T22:09:26.464Z,67.0
2022-10-18T22:12:09.313Z,67.0
2022-10-18T22:14:30.992Z,67.0
2022-10-18T22:17:01.600Z,67.0
2022-10-18T22:19:32.192Z,67.0
2022-10-18T22:22:02.789Z,67.0
2022-10-18T22:24:43.471Z,67.0
2022-10-18T22:27:14.076Z,67.0
2022-10-18T22:29:44.625Z,67.0
2022-10-18T22:32:15.219Z,67.0
2022-10-18T22:34:45.797Z,67.0
2022-10-18T22:37:16.389Z,67.0
2022-10-18T22:42:27.187Z,67.0
2022-10-18T22:44:57.812Z,67.0
2022-10-18T22:47:28.416Z,67.0
2022-10-18T22:50:09.037Z,67.0
2022-10-18T22:52:39.615Z,67.0
2022-10-18T22:55:13.113Z,67.0
2022-10-18T22:57:43.810Z,67.0
2022-10-18T23:00:14.426Z,67.0
2022-10-18T23:02:45.540Z,67.0
2022-10-18T23:05:16.116Z,67.0
2022-10-18T23:07:46.702Z,67.0
2022-10-18T23:10:27.310Z,67.0
2022-10-18T23:12:57.903Z,67.0
2022-10-18T23:15:28.498Z,67.0
2022-10-18T23:17:59.074Z,67.0
2022-10-18T23:23:09.852Z,68.0
2022-10-18T23:25:40.453Z,68.0
2022-10-18T23:28:12.274Z,68.0
2022-10-18T23:30:42.965Z,67.0
2022-10-18T23:33:13.558Z,68.0
2022-10-18T23:35:44.158Z,68.0
2022-10-18T23:38:24.768Z,68.0
2022-10-18T23:40:55.348Z,68.0
2022-10-18T23:43:25.944Z,68.0
2022-10-18T23:45:56.498Z,68.0
2022-10-18T23:50:57.225Z,68.0
2022-10-18T23:53:47.851Z,68.0
2022-10-18T23:56:18.409Z,68.0
2022-10-18T23:58:49.017Z,68.0
